createdAt,value
2019-05-11T00:00:20.858Z,7.90
2019-05-11T00:02:47.687Z,8.10
2019-05-11T00:05:14.343Z,9.40
2019-05-11T00:07:41.091Z,9.60
2019-05-11T00:10:07.878Z,9.20
2019-05-11T00:12:34.557Z,9.03
2019-05-11T00:15:01.244Z,9.43
2019-05-11T00:17:27.874Z,9.67
2019-05-11T00:19:54.497Z,9.10
2019-05-11T00:22:21.173Z,10.20
2019-05-11T00:24:47.809Z,10.27
2019-05-11T00:27:14.467Z,10.30
2019-05-11T00:29:41.255Z,10.00
2019-05-11T00:32:08.033Z,10.93
2019-05-11T00:34:34.692Z,11.00
2019-05-11T00:37:01.356Z,10.90
2019-05-11T00:39:27.980Z,10.40
2019-05-11T00:41:54.602Z,11.20
2019-05-11T00:44:21.300Z,8.43
2019-05-11T00:46:47.974Z,8.00
2019-05-11T00:49:14.787Z,6.17
2019-05-11T00:51:41.459Z,4.37
2019-05-11T00:54:08.120Z,4.53
2019-05-11T00:56:34.860Z,4.10
2019-05-11T00:59:02.221Z,4.57
2019-05-11T01:01:28.910Z,4.20
2019-05-11T01:03:55.553Z,4.47
2019-05-11T01:06:22.197Z,3.73
2019-05-11T01:08:48.837Z,4.40
2019-05-11T01:11:15.511Z,4.33
2019-05-11T01:13:42.149Z,4.37
2019-05-11T01:18:50.784Z,4.87
2019-05-11T01:21:17.487Z,4.70
2019-05-11T01:23:44.216Z,4.23
2019-05-11T01:26:10.910Z,5.30
2019-05-11T01:28:37.532Z,5.00
2019-05-11T01:31:04.400Z,5.87
2019-05-11T01:33:31.093Z,6.30
2019-05-11T01:35:57.723Z,6.03
2019-05-11T01:38:24.984Z,6.47
2019-05-11T01:40:58.883Z,7.30
2019-05-11T01:43:20.206Z,7.33
2019-05-11T01:45:46.931Z,8.07
2019-05-11T01:48:13.513Z,7.90
2019-05-11T01:50:40.351Z,7.10
2019-05-11T01:53:06.972Z,6.80
2019-05-11T01:55:33.633Z,7.27
2019-05-11T01:58:00.290Z,7.93
2019-05-11T02:00:26.987Z,7.70
2019-05-11T02:02:53.679Z,8.97
2019-05-11T02:05:26.870Z,7.17
2019-05-11T02:07:54.035Z,7.40
2019-05-11T02:10:20.714Z,6.90
2019-05-11T02:12:47.358Z,7.43
2019-05-11T02:15:14.069Z,7.03
2019-05-11T02:17:40.732Z,7.20
2019-05-11T02:20:07.898Z,7.27
2019-05-11T02:22:34.552Z,7.97
2019-05-11T02:25:01.351Z,7.50
2019-05-11T02:27:28.130Z,8.00
2019-05-11T02:29:54.756Z,7.03
2019-05-11T02:32:21.458Z,7.63
2019-05-11T02:34:48.077Z,8.20
2019-05-11T02:37:14.754Z,7.67
2019-05-11T02:39:41.382Z,7.53
2019-05-11T02:42:08.036Z,8.17
2019-05-11T02:44:34.676Z,8.20
2019-05-11T02:47:01.348Z,8.80
2019-05-11T02:49:28.504Z,8.60
2019-05-11T02:51:55.779Z,9.40
2019-05-11T02:54:22.884Z,9.87
2019-05-11T02:56:49.649Z,9.17
2019-05-11T02:59:17.543Z,10.23
2019-05-11T03:01:44.209Z,9.53
2019-05-11T03:04:10.853Z,10.83
2019-05-11T03:06:37.595Z,11.93
2019-05-11T03:09:05.232Z,10.47
2019-05-11T03:11:31.954Z,11.50
2019-05-11T03:13:58.603Z,11.53
2019-05-11T03:16:25.274Z,10.53
2019-05-11T03:18:52.065Z,11.50
2019-05-11T03:21:18.741Z,11.20
2019-05-11T03:23:45.428Z,11.37
2019-05-11T03:26:12.185Z,10.27
2019-05-11T03:28:38.907Z,10.90
2019-05-11T03:31:05.754Z,12.60
2019-05-11T03:33:32.407Z,10.60
2019-05-11T03:35:59.997Z,11.40
2019-05-11T03:38:26.710Z,11.27
2019-05-11T03:40:53.474Z,10.47
2019-05-11T03:43:20.137Z,11.17
2019-05-11T03:45:47.062Z,11.07
2019-05-11T03:48:13.745Z,12.13
2019-05-11T03:50:40.594Z,11.90
2019-05-11T03:53:07.451Z,11.93
2019-05-11T03:55:34.059Z,11.97
2019-05-11T03:58:01.845Z,11.33
2019-05-11T04:00:28.463Z,12.53
2019-05-11T04:02:55.249Z,12.83
2019-05-11T04:05:21.972Z,13.33
2019-05-11T04:07:48.642Z,12.63
2019-05-11T04:10:15.571Z,12.80
2019-05-11T04:12:42.093Z,12.43
2019-05-11T04:15:09.188Z,13.13
2019-05-11T04:17:36.158Z,14.03
2019-05-11T04:20:07.125Z,13.93
2019-05-11T04:22:33.744Z,13.60
2019-05-11T04:25:00.449Z,13.37
2019-05-11T04:27:28.321Z,15.00
2019-05-11T04:29:55.029Z,12.73
2019-05-11T04:32:22.872Z,15.73
2019-05-11T04:34:49.550Z,16.90
2019-05-11T04:37:16.173Z,18.17
2019-05-11T04:39:42.881Z,15.43
2019-05-11T04:42:09.522Z,16.23
2019-05-11T04:44:36.237Z,17.33
2019-05-11T04:47:02.834Z,18.50
2019-05-11T04:49:29.522Z,20.73
2019-05-11T04:51:56.162Z,19.20
2019-05-11T04:54:22.822Z,21.73
2019-05-11T04:56:49.505Z,20.00
2019-05-11T04:59:16.165Z,24.87
2019-05-11T05:01:42.845Z,19.37
2019-05-11T05:04:14.377Z,23.80
2019-05-11T05:06:38.971Z,19.00
2019-05-11T05:09:07.797Z,20.87
2019-05-11T05:11:36.682Z,21.60
2019-05-11T05:14:08.205Z,18.77
2019-05-11T05:16:31.837Z,21.67
2019-05-11T05:18:58.497Z,20.20
2019-05-11T05:21:26.168Z,20.00
2019-05-11T05:23:52.800Z,17.20
2019-05-11T05:26:19.480Z,19.50
2019-05-11T05:28:46.159Z,16.80
2019-05-11T05:31:12.796Z,18.50
2019-05-11T05:33:39.465Z,17.87
2019-05-11T05:36:06.103Z,18.87
2019-05-11T05:38:32.781Z,17.33
2019-05-11T05:40:59.651Z,18.70
2019-05-11T05:43:28.568Z,18.67
2019-05-11T05:45:54.893Z,18.80
2019-05-11T05:48:21.633Z,18.67
2019-05-11T05:50:49.551Z,17.70
2019-05-11T05:53:16.216Z,20.10
2019-05-11T05:55:42.844Z,16.80
2019-05-11T05:58:09.484Z,18.40
2019-05-11T06:00:36.161Z,20.10
2019-05-11T06:03:02.803Z,20.40
2019-05-11T06:05:29.474Z,18.03
2019-05-11T06:07:56.106Z,17.57
2019-05-11T06:10:23.198Z,16.90
2019-05-11T06:12:50.222Z,16.90
2019-05-11T06:15:17.030Z,17.63
2019-05-11T06:17:44.741Z,16.70
2019-05-11T06:20:11.817Z,18.60
2019-05-11T06:22:39.777Z,19.10
2019-05-11T06:25:06.416Z,15.60
2019-05-11T06:27:33.169Z,18.40
2019-05-11T06:29:59.961Z,18.43
2019-05-11T06:32:26.601Z,17.93
2019-05-11T06:34:53.363Z,16.93
2019-05-11T06:37:19.992Z,16.37
2019-05-11T06:39:46.671Z,18.30
2019-05-11T06:42:13.291Z,16.60
2019-05-11T06:44:39.948Z,15.77
2019-05-11T06:47:06.636Z,16.80
2019-05-11T06:49:33.332Z,18.70
2019-05-11T06:52:00.057Z,17.10
2019-05-11T06:54:26.736Z,15.10
2019-05-11T06:56:53.361Z,15.73
2019-05-11T06:59:20.052Z,15.90
2019-05-11T07:01:46.797Z,16.90
2019-05-11T07:04:13.457Z,14.93
2019-05-11T07:06:40.090Z,15.80
2019-05-11T07:09:06.935Z,14.13
2019-05-11T07:11:33.636Z,17.27
2019-05-11T07:14:00.446Z,16.83
2019-05-11T07:16:27.993Z,15.70
2019-05-11T07:18:54.901Z,13.93
2019-05-11T07:21:21.659Z,15.13
2019-05-11T07:23:48.396Z,14.33
2019-05-11T07:26:15.083Z,15.60
2019-05-11T07:28:41.744Z,13.83
2019-05-11T07:31:08.547Z,16.13
2019-05-11T07:33:35.360Z,15.40
2019-05-11T07:36:02.128Z,16.50
2019-05-11T07:38:28.867Z,13.43
2019-05-11T07:40:58.050Z,13.53
2019-05-11T07:43:24.104Z,15.57
2019-05-11T07:45:50.717Z,18.10
2019-05-11T07:48:18.648Z,16.43
2019-05-11T07:50:47.786Z,17.63
2019-05-11T07:53:13.989Z,17.17
2019-05-11T07:55:40.688Z,17.70
2019-05-11T07:58:07.992Z,16.40
2019-05-11T08:00:37.441Z,17.50
2019-05-11T08:03:03.366Z,17.37
2019-05-11T08:05:30.186Z,18.00
2019-05-11T08:07:59.289Z,18.60
2019-05-11T08:10:27.972Z,19.40
2019-05-11T08:12:53.705Z,18.90
2019-05-11T08:15:20.692Z,16.83
2019-05-11T08:17:48.752Z,18.50
2019-05-11T08:20:15.913Z,18.67
2019-05-11T08:22:42.565Z,18.17
2019-05-11T08:25:09.454Z,19.37
2019-05-11T08:27:37.847Z,20.37
2019-05-11T08:30:08.566Z,19.47
2019-05-11T08:32:35.206Z,19.53
2019-05-11T08:35:02.274Z,19.03
2019-05-11T08:37:28.957Z,19.97
2019-05-11T08:39:55.592Z,20.30
2019-05-11T08:42:22.276Z,20.90
2019-05-11T08:44:49.052Z,18.13
2019-05-11T08:47:17.767Z,21.57
2019-05-11T08:49:44.320Z,19.67
2019-05-11T08:52:10.965Z,19.97
2019-05-11T08:54:38.192Z,18.97
2019-05-11T08:57:05.032Z,19.33
2019-05-11T08:59:31.717Z,18.73
2019-05-11T09:01:58.886Z,18.63
2019-05-11T09:04:25.655Z,20.80
2019-05-11T09:06:52.380Z,18.00
2019-05-11T09:09:19.045Z,19.90
2019-05-11T09:11:47.979Z,18.70
2019-05-11T09:14:14.271Z,19.53
2019-05-11T09:16:40.908Z,19.10
2019-05-11T09:19:08.836Z,17.27
2019-05-11T09:21:38.076Z,16.40
2019-05-11T09:24:04.353Z,17.70
2019-05-11T09:26:30.995Z,15.40
2019-05-11T09:28:58.316Z,15.87
2019-05-11T09:31:25.089Z,16.57
2019-05-11T09:33:51.749Z,15.00
2019-05-11T09:36:18.567Z,15.67
2019-05-11T09:38:45.272Z,16.10
2019-05-11T09:41:12.293Z,15.63
2019-05-11T09:43:38.952Z,15.60
2019-05-11T09:46:08.087Z,13.53
2019-05-11T09:48:34.205Z,14.70
2019-05-11T09:51:00.889Z,14.00
2019-05-11T09:53:28.300Z,14.83
2019-05-11T09:55:55.092Z,13.60
2019-05-11T09:58:21.754Z,12.50
2019-05-11T10:00:48.491Z,13.13
2019-05-11T10:03:15.154Z,12.13
2019-05-11T10:05:41.810Z,12.63
2019-05-11T10:08:08.457Z,14.40
2019-05-11T10:10:35.116Z,13.87
2019-05-11T10:13:01.770Z,13.03
2019-05-11T10:15:28.428Z,16.23
2019-05-11T10:17:55.089Z,13.30
2019-05-11T10:20:21.815Z,14.83
2019-05-11T10:22:48.739Z,13.20
2019-05-11T10:25:17.975Z,12.40
2019-05-11T10:27:44.068Z,12.03
2019-05-11T10:30:11.006Z,11.80
2019-05-11T10:32:38.382Z,12.20
2019-05-11T10:35:05.131Z,11.77
2019-05-11T10:37:31.784Z,10.73
2019-05-11T10:39:58.414Z,11.50
2019-05-11T10:42:25.059Z,11.53
2019-05-11T10:44:51.845Z,11.20
2019-05-11T10:47:18.601Z,10.27
2019-05-11T10:49:45.226Z,10.30
2019-05-11T10:52:11.975Z,10.77
2019-05-11T10:54:40.074Z,10.90
2019-05-11T10:57:08.454Z,11.30
2019-05-11T10:59:35.153Z,11.67
2019-05-11T11:02:01.929Z,11.70
2019-05-11T11:04:28.927Z,11.73
2019-05-11T11:06:55.679Z,12.00
2019-05-11T11:09:22.336Z,11.80
2019-05-11T11:11:49.117Z,12.37
2019-05-11T11:14:17.897Z,14.17
2019-05-11T11:16:44.217Z,11.87
2019-05-11T11:19:10.875Z,12.73
2019-05-11T11:21:38.360Z,13.23
2019-05-11T11:24:07.502Z,13.33
2019-05-11T11:26:34.739Z,14.13
2019-05-11T11:29:01.456Z,13.93
2019-05-11T11:31:28.763Z,13.60
2019-05-11T11:33:58.247Z,17.30
2019-05-11T11:36:24.093Z,28.53
2019-05-11T11:38:50.877Z,13.63
2019-05-11T11:41:18.456Z,16.37
2019-05-11T11:43:45.585Z,16.27
2019-05-11T11:46:12.329Z,16.70
2019-05-11T11:48:39.183Z,14.53
2019-05-11T11:51:08.133Z,16.10
2019-05-11T11:53:34.602Z,16.27
2019-05-11T11:56:01.249Z,15.07
2019-05-11T11:58:27.910Z,16.80
2019-05-11T12:00:54.551Z,16.17
2019-05-11T12:03:21.206Z,15.37
2019-05-11T12:05:47.931Z,17.77
2019-05-11T12:08:14.605Z,22.13
2019-05-11T12:10:41.342Z,18.60
2019-05-11T12:13:08.668Z,19.73
2019-05-11T12:15:35.416Z,19.03
2019-05-11T12:18:02.125Z,18.27
2019-05-11T12:20:28.884Z,19.80
2019-05-11T12:22:57.980Z,17.70
2019-05-11T12:25:24.349Z,17.90
2019-05-11T12:27:51.081Z,17.60
2019-05-11T12:30:18.011Z,17.20
2019-05-11T12:32:48.547Z,17.67
2019-05-11T12:35:15.088Z,19.00
2019-05-11T12:37:41.785Z,18.63
2019-05-11T12:40:10.268Z,17.93
2019-05-11T12:42:37.962Z,18.47
2019-05-11T12:45:07.550Z,17.87
2019-05-11T12:47:34.481Z,19.07
2019-05-11T12:50:01.638Z,16.37
2019-05-11T12:52:28.317Z,18.33
2019-05-11T12:54:54.947Z,17.10
2019-05-11T12:57:21.632Z,17.17
2019-05-11T12:59:48.778Z,14.53
2019-05-11T13:02:15.613Z,13.63
2019-05-11T13:04:42.257Z,19.83
2019-05-11T13:07:08.949Z,16.27
2019-05-11T13:09:37.911Z,16.20
2019-05-11T13:12:04.080Z,14.50
2019-05-11T13:14:30.703Z,14.90
2019-05-11T13:16:59.001Z,14.33
2019-05-11T13:19:28.014Z,14.03
2019-05-11T13:21:54.450Z,13.33
2019-05-11T13:24:21.191Z,12.90
2019-05-11T13:26:48.521Z,13.03
2019-05-11T13:29:15.508Z,11.20
2019-05-11T13:31:42.203Z,11.30
2019-05-11T13:34:12.445Z,12.30
2019-05-11T13:36:39.283Z,9.43
2019-05-11T13:39:08.925Z,9.10
2019-05-11T13:41:35.429Z,8.10
2019-05-11T13:44:02.095Z,12.40
2019-05-11T13:46:28.779Z,8.77
2019-05-11T13:48:55.401Z,8.67
2019-05-11T13:51:22.078Z,8.83
2019-05-11T13:53:48.747Z,8.20
2019-05-11T13:56:15.443Z,8.23
2019-05-11T13:58:42.189Z,7.93
2019-05-11T14:01:08.870Z,7.03
2019-05-11T14:03:37.575Z,5.13
2019-05-11T14:06:04.022Z,5.80
2019-05-11T14:08:30.713Z,6.13
2019-05-11T14:10:58.004Z,6.00
2019-05-11T14:13:24.837Z,5.77
2019-05-11T14:15:51.489Z,4.90
2019-05-11T14:18:23.087Z,5.57
2019-05-11T14:20:49.863Z,4.47
2019-05-11T14:23:18.318Z,4.60
2019-05-11T14:25:45.005Z,4.73
2019-05-11T14:28:11.690Z,4.60
2019-05-11T14:30:38.819Z,5.20
2019-05-11T14:33:05.596Z,5.03
2019-05-11T14:35:32.232Z,4.03
2019-05-11T14:37:58.966Z,3.90
2019-05-11T14:40:25.666Z,4.03
2019-05-11T14:42:52.354Z,4.03
2019-05-11T14:45:19.104Z,4.20
2019-05-11T14:47:47.661Z,4.13
2019-05-11T14:50:14.235Z,3.70
2019-05-11T14:52:40.913Z,3.60
2019-05-11T14:55:08.153Z,3.60
2019-05-11T14:57:35.049Z,3.60
2019-05-11T15:00:01.781Z,4.23
2019-05-11T15:02:49.320Z,4.53
2019-05-11T15:05:18.223Z,6.13
2019-05-11T15:07:45.170Z,5.00
2019-05-11T15:10:13.188Z,4.83
2019-05-11T15:12:39.978Z,4.67
2019-05-11T15:15:08.150Z,4.53
2019-05-11T15:17:34.940Z,4.50
2019-05-11T15:20:01.967Z,3.40
2019-05-11T15:22:28.817Z,3.77
2019-05-11T15:24:55.641Z,4.40
2019-05-11T15:27:22.323Z,4.53
2019-05-11T15:29:49.544Z,4.13
2019-05-11T15:32:18.009Z,4.70
2019-05-11T15:34:44.550Z,6.40
2019-05-11T15:37:11.175Z,5.43
2019-05-11T15:39:37.998Z,5.07
2019-05-11T15:42:10.335Z,4.60
2019-05-11T15:44:33.281Z,5.57
2019-05-11T15:47:00.021Z,5.10
2019-05-11T15:49:28.423Z,5.30
2019-05-11T15:51:57.746Z,5.00
2019-05-11T15:54:23.720Z,5.57
2019-05-11T15:56:50.377Z,6.27
2019-05-11T15:59:17.149Z,6.60
2019-05-11T16:01:43.796Z,5.53
2019-05-11T16:04:10.581Z,6.23
2019-05-11T16:06:37.300Z,6.00
2019-05-11T16:09:08.324Z,5.37
2019-05-11T16:11:34.399Z,5.40
2019-05-11T16:14:01.213Z,6.50
2019-05-11T16:16:28.144Z,6.30
2019-05-11T16:19:08.641Z,5.43
2019-05-11T16:21:23.409Z,6.37
2019-05-11T16:23:50.122Z,5.47
2019-05-11T16:26:17.608Z,5.60
2019-05-11T16:28:44.619Z,15.13
2019-05-11T16:31:11.304Z,5.90
2019-05-11T16:33:39.023Z,5.53
2019-05-11T16:36:08.797Z,6.17
2019-05-11T16:38:34.700Z,5.70
2019-05-11T16:41:01.384Z,6.40
2019-05-11T16:43:28.256Z,6.83
2019-05-11T16:45:55.069Z,6.90
2019-05-11T16:48:21.758Z,7.33
2019-05-11T16:50:48.529Z,7.97
2019-05-11T16:53:15.232Z,6.63
2019-05-11T16:55:41.890Z,7.73
2019-05-11T16:58:08.531Z,7.17
2019-05-11T17:00:35.389Z,7.57
2019-05-11T17:03:02.078Z,6.60
2019-05-11T17:05:33.335Z,7.00
2019-05-11T17:07:58.760Z,8.20
2019-05-11T17:10:25.540Z,7.37
2019-05-11T17:12:52.164Z,8.00
2019-05-11T17:15:19.216Z,7.97
2019-05-11T17:17:48.381Z,8.43
2019-05-11T17:20:15.083Z,7.90
2019-05-11T17:22:41.818Z,9.00
2019-05-11T17:25:10.087Z,7.63
2019-05-11T17:27:37.653Z,8.43
2019-05-11T17:30:08.649Z,8.60
2019-05-11T17:32:35.451Z,9.37
2019-05-11T17:35:03.550Z,8.90
2019-05-11T17:37:30.184Z,8.47
2019-05-11T17:39:58.676Z,8.00
2019-05-11T17:42:25.331Z,7.90
2019-05-11T17:44:51.968Z,8.27
2019-05-11T17:47:18.613Z,8.40
2019-05-11T17:49:57.388Z,8.30
2019-05-11T17:52:13.742Z,8.23
2019-05-11T17:54:40.392Z,7.83
2019-05-11T17:57:07.107Z,7.77
2019-05-11T17:59:33.889Z,8.37
2019-05-11T18:02:00.613Z,7.67
2019-05-11T18:04:27.264Z,7.33
2019-05-11T18:06:53.924Z,7.33
2019-05-11T18:09:20.548Z,9.73
2019-05-11T18:11:48.245Z,14.40
2019-05-11T18:14:14.974Z,13.57
2019-05-11T18:16:41.646Z,10.13
2019-05-11T18:19:08.833Z,9.80
2019-05-11T18:21:35.912Z,8.30
2019-05-11T18:24:03.468Z,9.10
2019-05-11T18:26:30.759Z,8.63
2019-05-11T18:28:58.630Z,9.90
2019-05-11T18:31:25.999Z,9.87
2019-05-11T18:33:53.281Z,10.37
2019-05-11T18:36:19.909Z,11.40
2019-05-11T18:38:48.566Z,9.13
2019-05-11T18:41:15.035Z,9.90
2019-05-11T18:43:42.056Z,11.10
2019-05-11T18:46:08.724Z,10.40
2019-05-11T18:48:35.355Z,10.13
2019-05-11T18:51:02.113Z,9.67
2019-05-11T18:53:29.106Z,16.37
2019-05-11T18:55:55.789Z,19.77
2019-05-11T18:58:22.495Z,10.67
2019-05-11T19:00:49.119Z,10.30
2019-05-11T19:03:15.785Z,9.00
2019-05-11T19:05:42.426Z,9.97
2019-05-11T19:08:09.046Z,10.77
2019-05-11T19:10:35.709Z,9.80
2019-05-11T19:13:02.406Z,11.17
2019-05-11T19:15:29.052Z,10.23
2019-05-11T19:17:57.934Z,11.47
2019-05-11T19:20:24.213Z,9.13
2019-05-11T19:22:53.165Z,10.80
2019-05-11T19:25:20.603Z,10.40
2019-05-11T19:27:50.598Z,10.20
2019-05-11T19:30:18.574Z,10.50
2019-05-11T19:32:48.484Z,10.40
2019-05-11T19:35:17.537Z,10.20
2019-05-11T19:37:45.479Z,10.60
2019-05-11T19:40:12.726Z,11.40
2019-05-11T19:42:54.086Z,10.10
2019-05-11T19:45:22.174Z,10.97
2019-05-11T19:47:49.728Z,10.50
2019-05-11T19:50:17.806Z,9.33
2019-05-11T19:52:47.812Z,10.37
2019-05-11T19:55:17.961Z,9.27
2019-05-11T19:57:48.014Z,10.47
2019-05-11T20:00:13.084Z,10.20
2019-05-11T20:02:39.716Z,9.10
2019-05-11T20:05:06.401Z,10.00
2019-05-11T20:07:33.025Z,8.73
2019-05-11T20:09:59.714Z,10.10
2019-05-11T20:12:28.229Z,8.90
2019-05-11T20:14:54.929Z,8.70
2019-05-11T20:17:21.625Z,8.37
2019-05-11T20:19:49.030Z,7.20
2019-05-11T20:22:15.889Z,7.57
2019-05-11T20:24:42.602Z,7.00
2019-05-11T20:27:09.342Z,6.10
2019-05-11T20:29:38.009Z,6.53
2019-05-11T20:32:04.452Z,5.67
2019-05-11T20:34:31.158Z,6.50
2019-05-11T20:36:58.694Z,6.67
2019-05-11T20:39:25.525Z,6.30
2019-05-11T20:41:52.173Z,6.47
2019-05-11T20:44:19.009Z,6.50
2019-05-11T20:46:46.048Z,6.03
2019-05-11T20:49:13.300Z,6.50
2019-05-11T20:51:40.017Z,5.80
2019-05-11T20:54:08.856Z,6.03
2019-05-11T20:56:36.116Z,6.00
2019-05-11T20:59:02.790Z,5.80
2019-05-11T21:01:29.452Z,4.73
2019-05-11T21:03:58.210Z,4.87
2019-05-11T21:06:24.580Z,5.00
2019-05-11T21:08:51.214Z,4.80
2019-05-11T21:11:18.442Z,4.97
2019-05-11T21:13:45.205Z,4.40
2019-05-11T21:16:11.896Z,5.20
2019-05-11T21:18:38.554Z,5.30
2019-05-11T21:21:05.349Z,4.40
2019-05-11T21:23:32.011Z,4.70
2019-05-11T21:25:58.936Z,3.90
2019-05-11T21:28:25.724Z,3.70
2019-05-11T21:30:52.493Z,3.70
2019-05-11T21:33:19.101Z,4.07
2019-05-11T21:35:46.072Z,4.10
2019-05-11T21:38:12.896Z,3.80
2019-05-11T21:40:39.605Z,3.50
2019-05-11T21:43:08.516Z,3.00
2019-05-11T21:45:37.657Z,3.70
2019-05-11T21:48:03.381Z,3.10
2019-05-11T21:50:30.161Z,3.73
2019-05-11T21:52:58.982Z,3.33
2019-05-11T21:55:25.405Z,3.17
2019-05-11T21:57:52.065Z,3.40
2019-05-11T22:00:19.384Z,3.20
2019-05-11T22:02:48.464Z,3.60
2019-05-11T22:05:14.637Z,3.33
2019-05-11T22:07:42.567Z,3.10
2019-05-11T22:10:09.686Z,3.80
2019-05-11T22:12:38.680Z,3.13
2019-05-11T22:15:09.139Z,3.27
2019-05-11T22:17:35.360Z,3.77
2019-05-11T22:20:03.033Z,2.90
2019-05-11T22:22:29.692Z,3.27
2019-05-11T22:24:58.424Z,3.80
2019-05-11T22:27:27.587Z,3.70
2019-05-11T22:29:53.438Z,2.47
2019-05-11T22:32:20.117Z,2.77
2019-05-11T22:34:47.963Z,3.03
2019-05-11T22:37:14.878Z,3.30
2019-05-11T22:39:41.549Z,3.60
2019-05-11T22:42:08.241Z,3.57
2019-05-11T22:44:35.897Z,2.80
2019-05-11T22:47:03.446Z,2.67
2019-05-11T22:49:30.068Z,3.17
2019-05-11T22:51:59.558Z,3.33
2019-05-11T22:54:25.210Z,2.53
2019-05-11T22:56:51.868Z,2.83
2019-05-11T22:59:20.286Z,3.40
2019-05-11T23:01:48.281Z,2.87
2019-05-11T23:04:15.084Z,3.07
2019-05-11T23:06:41.721Z,2.70
2019-05-11T23:09:08.400Z,2.37
2019-05-11T23:11:35.033Z,3.07
2019-05-11T23:14:01.661Z,3.10
2019-05-11T23:16:28.714Z,3.20
2019-05-11T23:18:55.540Z,2.77
2019-05-11T23:21:22.263Z,3.03
2019-05-11T23:23:48.916Z,2.80
2019-05-11T23:26:17.644Z,2.80
2019-05-11T23:28:44.069Z,2.57
2019-05-11T23:31:10.774Z,3.13
2019-05-11T23:33:38.479Z,3.10
2019-05-11T23:36:05.209Z,3.03
2019-05-11T23:38:31.977Z,3.30
2019-05-11T23:40:58.934Z,3.10
2019-05-11T23:43:29.751Z,2.80
2019-05-11T23:45:54.141Z,3.67
2019-05-11T23:48:20.808Z,3.83
2019-05-11T23:50:47.639Z,2.77
2019-05-11T23:53:14.304Z,3.40
2019-05-11T23:55:40.980Z,3.07
2019-05-11T23:58:08.159Z,2.90
